Time;durP1;ratioP1;P1;durP2;ratioP2;P2;SDS_P1;SDS_P2;PMS_P1;PMS_P2;Temp;Humidity;BMP_temperature;BMP_pressure;BME280_temperature;BME280_humidity;BME280_pressure;Samples;Min_cycle;Max_cycle;Signal;HPM_P1;HPM_P2
2021/04/24 00:01:11;;;;;;;27.60;11.90;;;3.10;99.90;;;;;;4117966;28;20053;-80
2021/04/24 00:03:12;;;;;;;28.00;11.55;;;3.10;99.90;;;;;;4147558;28;20030;-80
2021/04/24 00:05:22;;;;;;;23.10;13.13;;;3.00;99.90;;;;;;4131096;28;20084;-80
2021/04/24 00:07:24;;;;;;;25.48;12.80;;;3.00;99.90;;;;;;4143292;28;20116;-80
2021/04/24 00:09:25;;;;;;;28.38;11.95;;;2.90;99.90;;;;;;4141860;28;20030;-79
2021/04/24 00:11:26;;;;;;;25.80;12.88;;;3.00;99.90;;;;;;4163388;28;20136;-80
2021/04/24 00:13:27;;;;;;;24.33;12.45;;;2.90;99.90;;;;;;4163798;28;20087;-80
2021/04/24 00:15:28;;;;;;;32.88;14.68;;;2.90;99.90;;;;;;4154816;28;20033;-80
2021/04/24 00:17:29;;;;;;;30.88;13.15;;;2.90;99.90;;;;;;4142492;28;20106;-80
2021/04/24 00:19:31;;;;;;;24.65;12.52;;;2.80;99.90;;;;;;4144690;28;20022;-80
2021/04/24 00:21:32;;;;;;;26.85;13.30;;;2.80;99.90;;;;;;4146982;28;20030;-80
2021/04/24 00:23:33;;;;;;;25.55;12.25;;;2.70;99.90;;;;;;4136388;28;20042;-81
2021/04/24 00:25:35;;;;;;;30.88;14.18;;;2.70;99.90;;;;;;4146695;28;20501;-80
2021/04/24 00:27:36;;;;;;;29.13;12.15;;;2.60;99.90;;;;;;4146731;28;20029;-80
2021/04/24 00:29:36;;;;;;;31.27;12.43;;;2.50;99.90;;;;;;4164313;28;20263;-80
2021/04/24 00:31:37;;;;;;;33.28;11.73;;;2.50;99.90;;;;;;4163449;28;20120;-80
2021/04/24 00:33:38;;;;;;;27.10;13.30;;;2.50;99.90;;;;;;4146680;28;20038;-80
2021/04/24 00:35:39;;;;;;;24.00;12.65;;;2.50;99.90;;;;;;4153720;28;20091;-80
2021/04/24 00:37:40;;;;;;;27.45;12.82;;;2.40;99.90;;;;;;4164468;28;20029;-79
2021/04/24 00:39:41;;;;;;;29.67;12.55;;;2.40;99.90;;;;;;4163149;28;20029;-80
2021/04/24 00:41:42;;;;;;;25.30;13.00;;;2.40;99.90;;;;;;4162835;28;20389;-80
2021/04/24 00:43:42;;;;;;;31.48;14.10;;;2.30;99.90;;;;;;4163045;28;20040;-80
2021/04/24 00:45:44;;;;;;;28.67;13.15;;;2.30;99.90;;;;;;4146271;28;20041;-80
2021/04/24 00:47:45;;;;;;;24.27;13.48;;;2.30;99.90;;;;;;4162943;28;20037;-80
2021/04/24 00:49:46;;;;;;;27.52;13.00;;;2.30;99.90;;;;;;4162941;28;20113;-80
2021/04/24 00:51:47;;;;;;;27.35;13.32;;;2.30;99.90;;;;;;4162719;28;20064;-80
2021/04/24 00:53:47;;;;;;;26.95;13.27;;;2.30;99.90;;;;;;4129612;28;20039;-80
2021/04/24 00:55:48;;;;;;;31.25;15.98;;;2.30;99.90;;;;;;4144598;28;20037;-80
2021/04/24 00:57:49;;;;;;;26.75;12.77;;;2.30;99.90;;;;;;4150087;28;20025;-80
2021/04/24 00:59:50;;;;;;;25.35;12.20;;;2.20;99.90;;;;;;4156543;28;20172;-80
2021/04/24 01:01:51;;;;;;;27.42;12.90;;;2.20;99.90;;;;;;4138988;28;20509;-80
2021/04/24 01:03:52;;;;;;;30.98;13.30;;;2.20;99.90;;;;;;4146105;28;20701;-80
2021/04/24 01:05:53;;;;;;;35.67;14.73;;;2.20;99.90;;;;;;4162922;28;20068;-80
2021/04/24 01:07:54;;;;;;;27.85;12.80;;;2.20;99.90;;;;;;4162669;28;20076;-80
2021/04/24 01:09:54;;;;;;;30.00;14.15;;;2.20;99.90;;;;;;4146405;28;20125;-80
2021/04/24 01:11:56;;;;;;;40.30;14.30;;;2.30;99.90;;;;;;4162386;28;20075;-81
2021/04/24 01:13:56;;;;;;;33.65;13.25;;;2.30;99.90;;;;;;4162781;28;20033;-79
2021/04/24 01:15:57;;;;;;;31.67;13.63;;;2.20;99.90;;;;;;4162581;28;20404;-79
2021/04/24 01:17:58;;;;;;;26.88;13.80;;;2.20;99.90;;;;;;4146007;28;20125;-79
2021/04/24 01:19:59;;;;;;;33.17;13.57;;;2.20;99.90;;;;;;4133621;28;20030;-79
2021/04/24 01:22:10;;;;;;;29.27;12.88;;;2.10;99.90;;;;;;4151811;28;20042;-79
2021/04/24 01:24:11;;;;;;;38.45;13.25;;;2.10;99.90;;;;;;4147651;28;20088;-79
2021/04/24 01:26:12;;;;;;;29.85;12.48;;;2.00;99.90;;;;;;4146421;28;20037;-79
2021/04/24 01:28:13;;;;;;;26.88;12.77;;;2.00;99.90;;;;;;4129952;28;20442;-79
2021/04/24 01:30:15;;;;;;;27.42;13.13;;;2.10;99.90;;;;;;4113104;28;20086;-80
2021/04/24 01:32:16;;;;;;;39.90;15.27;;;2.10;99.90;;;;;;4122321;28;20034;-80
2021/04/24 01:34:17;;;;;;;29.77;13.85;;;2.10;99.90;;;;;;4144316;28;20402;-80
2021/04/24 01:36:18;;;;;;;33.00;13.85;;;2.10;99.90;;;;;;4159314;28;20034;-80
2021/04/24 01:38:19;;;;;;;37.22;12.90;;;2.10;99.90;;;;;;4148448;28;20115;-79
2021/04/24 01:40:21;;;;;;;29.77;13.15;;;2.20;99.90;;;;;;4160061;28;20037;-80
2021/04/24 01:42:22;;;;;;;31.40;12.93;;;2.20;99.90;;;;;;4144146;28;20042;-80
2021/04/24 01:44:23;;;;;;;37.00;13.25;;;2.20;99.90;;;;;;4155855;28;20044;-80
2021/04/24 01:46:24;;;;;;;30.92;13.02;;;2.30;99.90;;;;;;4158409;28;20029;-80
2021/04/24 01:48:25;;;;;;;36.15;14.45;;;2.30;99.90;;;;;;4144393;28;20034;-80
2021/04/24 01:50:41;;;;;;;34.85;13.63;;;2.30;99.90;;;;;;4162378;28;20030;-79
2021/04/24 01:52:43;;;;;;;41.63;14.13;;;2.30;99.90;;;;;;4145513;28;20038;-79
2021/04/24 01:54:44;;;;;;;34.88;13.63;;;2.20;99.90;;;;;;4145969;28;20041;-80
2021/04/24 01:56:55;;;;;;;37.10;13.75;;;2.20;99.90;;;;;;4161966;28;20042;-79
2021/04/24 01:58:56;;;;;;;29.50;13.18;;;2.20;99.90;;;;;;4155992;28;20136;-79
2021/04/24 02:01:06;;;;;;;28.85;14.13;;;2.10;99.90;;;;;;4161706;28;20571;-79
2021/04/24 02:03:11;;;;;;;31.50;13.70;;;2.20;99.90;;;;;;4154303;28;20173;-80
2021/04/24 02:05:14;;;;;;;37.78;15.32;;;2.20;99.90;;;;;;4161338;28;20036;-80
2021/04/24 02:07:15;;;;;;;32.60;13.70;;;2.30;99.90;;;;;;4161359;28;20021;-80
2021/04/24 02:09:18;;;;;;;35.00;15.15;;;2.20;99.90;;;;;;4161812;28;20033;-81
2021/04/24 02:11:19;;;;;;;38.42;14.05;;;2.20;99.90;;;;;;4145249;28;20046;-80
2021/04/24 02:13:29;;;;;;;34.17;13.75;;;2.20;99.90;;;;;;4161747;28;20040;-79
2021/04/24 02:15:30;;;;;;;30.70;14.27;;;2.20;99.90;;;;;;4161366;28;20032;-80
2021/04/24 02:17:31;;;;;;;32.95;13.75;;;2.10;99.90;;;;;;4161526;28;20033;-80
2021/04/24 02:19:36;;;;;;;35.00;13.50;;;2.10;99.90;;;;;;4151546;28;20044;-80
2021/04/24 02:21:37;;;;;;;34.47;12.80;;;2.10;99.90;;;;;;4154955;28;20037;-80
2021/04/24 02:23:39;;;;;;;30.85;14.63;;;2.10;99.90;;;;;;4157020;28;20505;-80
2021/04/24 02:25:42;;;;;;;31.50;13.60;;;2.00;99.90;;;;;;4161589;28;20029;-80
2021/04/24 02:27:43;;;;;;;33.90;13.90;;;2.00;99.90;;;;;;4144946;28;20484;-80
2021/04/24 02:29:45;;;;;;;38.10;15.43;;;1.90;99.90;;;;;;4155068;28;20041;-80
2021/04/24 02:31:46;;;;;;;31.73;14.13;;;1.90;99.90;;;;;;4154420;28;20134;-79
2021/04/24 02:33:47;;;;;;;35.10;14.38;;;1.90;99.90;;;;;;4150498;28;20093;-80
2021/04/24 02:35:58;;;;;;;27.50;12.00;;;1.90;99.90;;;;;;4146766;28;20417;-80
2021/04/24 02:37:59;;;;;;;31.38;13.55;;;1.80;99.90;;;;;;4132327;28;20038;-79
2021/04/24 02:40:00;;;;;;;35.63;14.75;;;1.80;99.90;;;;;;4118775;28;20026;-80
2021/04/24 02:42:04;;;;;;;33.35;12.95;;;1.80;99.90;;;;;;4160472;28;20049;-80
2021/04/24 02:44:05;;;;;;;36.38;15.40;;;1.80;99.90;;;;;;4138204;28;20073;-80
2021/04/24 02:46:08;;;;;;;37.30;14.43;;;1.80;99.90;;;;;;4126346;28;20027;-80
2021/04/24 02:48:09;;;;;;;37.60;14.48;;;1.80;99.90;;;;;;4143530;28;20026;-80
2021/04/24 02:50:17;;;;;;;32.42;14.68;;;1.80;99.90;;;;;;4159757;28;20025;-80
2021/04/24 02:52:18;;;;;;;36.67;13.55;;;1.80;99.90;;;;;;4136213;28;20044;-80
2021/04/24 02:54:20;;;;;;;35.50;14.80;;;1.80;99.90;;;;;;4159204;28;20037;-80
2021/04/24 02:56:20;;;;;;;38.55;14.32;;;1.80;99.90;;;;;;4159542;28;20589;-80
2021/04/24 02:58:21;;;;;;;36.40;14.73;;;1.80;99.90;;;;;;4159642;28;20041;-80
2021/04/24 03:00:24;;;;;;;34.75;14.77;;;1.80;99.90;;;;;;4159630;28;20042;-80
2021/04/24 03:02:25;;;;;;;37.80;14.17;;;1.80;99.90;;;;;;4159872;28;20034;-80
2021/04/24 03:04:25;;;;;;;39.22;15.63;;;1.80;99.90;;;;;;4159568;28;20045;-79
2021/04/24 03:06:26;;;;;;;39.05;15.23;;;1.80;99.90;;;;;;4143565;28;20026;-79
2021/04/24 03:08:27;;;;;;;32.55;14.50;;;1.80;99.90;;;;;;4161123;28;20033;-80
2021/04/24 03:10:28;;;;;;;41.72;13.52;;;1.70;99.90;;;;;;4161109;28;20083;-80
2021/04/24 03:12:31;;;;;;;40.97;14.75;;;1.80;99.90;;;;;;4143572;28;20095;-81
2021/04/24 03:14:33;;;;;;;43.67;15.70;;;1.70;99.90;;;;;;4144780;28;20069;-80
2021/04/24 03:16:35;;;;;;;38.05;16.58;;;1.70;99.90;;;;;;4162514;28;20037;-80
2021/04/24 03:18:37;;;;;;;43.33;15.65;;;1.70;99.90;;;;;;4161926;28;20179;-80
2021/04/24 03:20:38;;;;;;;42.20;15.50;;;1.70;99.90;;;;;;4181046;28;20037;-81
2021/04/24 03:22:39;;;;;;;37.58;14.20;;;1.70;99.90;;;;;;4138458;28;20030;-79
2021/04/24 03:24:39;;;;;;;44.75;15.20;;;1.70;99.90;;;;;;4164269;28;20068;-79
2021/04/24 03:26:40;;;;;;;39.15;16.38;;;1.70;99.90;;;;;;4147576;28;20504;-79
2021/04/24 03:28:41;;;;;;;42.90;15.40;;;1.70;99.90;;;;;;4163947;28;20060;-79
2021/04/24 03:30:42;;;;;;;40.03;14.65;;;1.70;99.90;;;;;;4164001;28;20021;-80
2021/04/24 03:32:42;;;;;;;40.75;17.00;;;1.70;99.90;;;;;;4163942;28;20029;-80
2021/04/24 03:34:43;;;;;;;44.83;16.92;;;1.70;99.90;;;;;;4163934;28;20022;-80
2021/04/24 03:36:44;;;;;;;38.35;14.73;;;1.60;99.90;;;;;;4164206;28;20033;-80
2021/04/24 03:38:45;;;;;;;37.20;14.32;;;1.60;99.90;;;;;;4147637;28;20030;-81
2021/04/24 03:40:45;;;;;;;46.13;16.25;;;1.50;99.90;;;;;;4147707;28;20481;-80
2021/04/24 03:42:46;;;;;;;38.88;15.52;;;1.50;99.90;;;;;;4160839;28;20041;-80
2021/04/24 03:44:47;;;;;;;41.03;14.98;;;1.50;99.90;;;;;;4142593;28;20178;-80
2021/04/24 03:46:47;;;;;;;38.97;13.75;;;1.50;99.90;;;;;;4143558;28;20042;-80
2021/04/24 03:48:48;;;;;;;45.70;15.98;;;1.50;99.90;;;;;;4130192;28;20034;-78
2021/04/24 03:50:49;;;;;;;38.30;14.48;;;1.50;99.90;;;;;;4138213;28;20105;-79
2021/04/24 03:52:53;;;;;;;39.97;15.93;;;1.50;99.90;;;;;;4137615;28;20089;-79
2021/04/24 03:54:54;;;;;;;52.00;16.55;;;1.50;99.90;;;;;;4127885;28;20034;-78
2021/04/24 03:56:55;;;;;;;42.95;16.90;;;1.50;99.90;;;;;;4128362;28;20073;-79
2021/04/24 03:58:58;;;;;;;50.72;17.80;;;1.50;99.90;;;;;;4141701;28;20122;-78
2021/04/24 04:00:59;;;;;;;44.13;15.20;;;1.50;99.90;;;;;;4103733;28;20050;-78
2021/04/24 04:03:07;;;;;;;43.95;15.43;;;1.50;99.90;;;;;;4132898;28;20041;-78
2021/04/24 04:05:08;;;;;;;40.53;15.07;;;1.50;99.90;;;;;;4154192;28;20040;-79
2021/04/24 04:07:09;;;;;;;44.42;14.70;;;1.50;99.90;;;;;;4154640;28;20393;-79
2021/04/24 04:09:10;;;;;;;48.40;15.35;;;1.50;99.90;;;;;;4155127;28;20064;-80
2021/04/24 04:11:11;;;;;;;43.30;15.77;;;1.50;99.90;;;;;;4154229;28;20121;-79
2021/04/24 04:13:14;;;;;;;47.40;17.63;;;1.50;99.90;;;;;;4155903;28;20030;-79
2021/04/24 04:15:17;;;;;;;42.97;14.73;;;1.50;99.90;;;;;;4135281;28;20041;-79
2021/04/24 04:17:18;;;;;;;;;;;1.50;99.90;;;;;;4165820;28;20056;-79
2021/04/24 04:19:19;;;;;;;42.08;16.27;;;1.50;99.90;;;;;;4160530;28;19913;-79
2021/04/24 04:21:20;;;;;;;41.95;15.23;;;1.50;99.90;;;;;;4161375;28;20034;-79
2021/04/24 04:23:25;;;;;;;37.70;14.82;;;1.50;99.90;;;;;;4144030;28;20583;-80
2021/04/24 04:25:26;;;;;;;52.97;17.73;;;1.50;99.90;;;;;;4158808;28;20070;-79
2021/04/24 04:27:27;;;;;;;43.25;15.60;;;1.60;99.90;;;;;;4159886;28;20095;-80
2021/04/24 04:29:28;;;;;;;38.88;16.05;;;1.60;99.90;;;;;;4142338;28;20044;-79
2021/04/24 04:31:28;;;;;;;43.70;15.30;;;1.60;99.90;;;;;;4159359;28;20040;-79
2021/04/24 04:33:30;;;;;;;57.53;17.80;;;1.50;99.90;;;;;;4138578;28;20375;-80
2021/04/24 04:35:31;;;;;;;44.13;16.98;;;1.60;99.90;;;;;;4157938;28;20033;-79
2021/04/24 04:37:32;;;;;;;45.38;16.50;;;1.70;99.90;;;;;;4146631;28;20034;-80
2021/04/24 04:39:32;;;;;;;44.83;16.10;;;1.60;99.90;;;;;;4162956;28;20381;-80
2021/04/24 04:41:33;;;;;;;47.42;15.48;;;1.60;99.90;;;;;;4146515;28;20445;-80
2021/04/24 04:43:34;;;;;;;47.58;16.52;;;1.60;99.90;;;;;;4162840;28;20501;-79
2021/04/24 04:45:37;;;;;;;41.97;15.95;;;1.70;99.90;;;;;;4154903;28;20033;-80
2021/04/24 04:47:38;;;;;;;43.53;16.07;;;1.70;99.90;;;;;;4145440;28;20134;-79
2021/04/24 04:49:39;;;;;;;42.78;16.35;;;1.70;99.90;;;;;;4145248;28;20285;-79
2021/04/24 04:51:40;;;;;;;54.17;16.85;;;1.80;99.90;;;;;;4162535;28;20087;-80
2021/04/24 04:53:40;;;;;;;47.70;17.90;;;1.80;99.90;;;;;;4162690;28;20033;-79
2021/04/24 04:55:41;;;;;;;45.10;16.58;;;1.90;99.90;;;;;;4146392;28;20064;-79
2021/04/24 04:57:43;;;;;;;42.78;17.63;;;1.90;99.90;;;;;;4146255;28;20144;-79
2021/04/24 04:59:43;;;;;;;48.47;17.70;;;2.00;99.90;;;;;;4144102;28;20038;-80
2021/04/24 05:01:44;;;;;;;47.78;17.80;;;2.10;99.90;;;;;;4149156;28;20030;-78
2021/04/24 05:03:45;;;;;;;48.50;17.45;;;2.10;99.90;;;;;;4146346;28;20065;-80
2021/04/24 05:05:46;;;;;;;49.33;16.85;;;2.20;99.90;;;;;;4162829;28;20038;-80
2021/04/24 05:07:49;;;;;;;62.70;19.08;;;2.20;99.90;;;;;;4146253;28;20092;-80
2021/04/24 05:09:50;;;;;;;41.53;18.05;;;2.30;99.90;;;;;;4161056;28;20056;-79
2021/04/24 05:11:50;;;;;;;47.05;16.98;;;2.40;99.90;;;;;;4177592;28;20072;-80
2021/04/24 05:13:51;;;;;;;52.60;18.00;;;2.40;99.90;;;;;;4163816;28;20460;-79
2021/04/24 05:15:52;;;;;;;48.55;18.60;;;2.50;99.90;;;;;;4145943;28;20029;-79
2021/04/24 05:17:53;;;;;;;47.90;17.67;;;2.50;99.90;;;;;;4162375;28;20037;-80
2021/04/24 05:19:54;;;;;;;55.30;17.42;;;2.60;99.90;;;;;;4158430;28;20473;-80
2021/04/24 05:21:54;;;;;;;45.65;17.40;;;2.60;99.90;;;;;;4131852;28;20490;-80
2021/04/24 05:23:55;;;;;;;52.22;20.88;;;2.70;99.90;;;;;;4162241;28;20038;-80
2021/04/24 05:25:56;;;;;;;49.35;16.70;;;2.70;99.90;;;;;;4162505;28;20461;-80
2021/04/24 05:27:57;;;;;;;48.45;17.83;;;2.80;99.90;;;;;;4162490;28;20539;-79
2021/04/24 05:29:58;;;;;;;49.85;16.88;;;2.90;99.90;;;;;;4162144;28;20555;-80
2021/04/24 05:31:59;;;;;;;44.30;17.05;;;3.00;99.90;;;;;;4161990;28;20033;-79
2021/04/24 05:34:00;;;;;;;47.40;17.25;;;3.00;99.90;;;;;;4145793;28;20064;-80
2021/04/24 05:36:08;;;;;;;43.40;17.85;;;3.10;99.90;;;;;;4145499;28;20479;-79
2021/04/24 05:38:08;;;;;;;43.13;17.40;;;3.20;99.90;;;;;;4158226;28;20109;-80
2021/04/24 05:40:10;;;;;;;37.83;16.25;;;;;;;;;;4161704;28;20516;-79
2021/04/24 05:42:12;;;;;;;36.10;16.50;;;3.40;99.90;;;;;;4162262;28;20037;-79
2021/04/24 05:44:12;;;;;;;48.20;16.15;;;3.50;99.90;;;;;;4158200;28;20033;-79
2021/04/24 05:46:13;;;;;;;35.95;16.45;;;3.60;99.90;;;;;;4160887;28;20040;-79
2021/04/24 05:48:14;;;;;;;37.38;17.30;;;3.70;99.90;;;;;;4161995;28;20029;-79
2021/04/24 05:50:20;;;;;;;37.53;15.05;;;3.70;99.90;;;;;;4162028;28;20029;-79
2021/04/24 05:52:21;;;;;;;35.45;16.80;;;3.80;99.90;;;;;;4159090;28;22989;-79
2021/04/24 05:54:22;;;;;;;35.15;15.55;;;3.90;99.90;;;;;;4147425;28;20124;-80
2021/04/24 05:56:23;;;;;;;34.40;15.13;;;3.90;99.90;;;;;;4153279;28;20183;-80
2021/04/24 05:58:24;;;;;;;36.97;15.55;;;4.00;99.90;;;;;;4160432;28;20083;-80
2021/04/24 06:00:25;;;;;;;39.50;15.98;;;4.00;99.90;;;;;;4151590;28;20037;-79
2021/04/24 06:02:26;;;;;;;34.03;16.35;;;4.00;99.90;;;;;;4145652;28;20100;-79
2021/04/24 06:04:27;;;;;;;37.67;14.40;;;4.00;99.90;;;;;;4160238;28;20417;-79
2021/04/24 06:06:28;;;;;;;39.42;15.38;;;4.00;99.90;;;;;;4156410;28;20492;-80
2021/04/24 06:08:29;;;;;;;32.05;17.63;;;4.00;99.90;;;;;;4149282;28;20037;-80
2021/04/24 06:10:30;;;;;;;36.90;15.60;;;4.00;99.90;;;;;;4138667;28;20057;-80
2021/04/24 06:12:30;;;;;;;33.80;16.75;;;4.10;99.90;;;;;;4152950;28;20063;-80
2021/04/24 06:14:33;;;;;;;33.17;16.08;;;4.20;99.90;;;;;;4155583;28;20424;-81
2021/04/24 06:16:33;;;;;;;35.13;15.75;;;4.20;99.90;;;;;;4144929;28;20038;-79
2021/04/24 06:18:34;;;;;;;27.77;14.77;;;4.30;99.90;;;;;;4144003;28;20580;-79
2021/04/24 06:20:35;;;;;;;29.13;15.93;;;4.40;99.90;;;;;;4150304;28;20092;-80
2021/04/24 06:22:39;;;;;;;32.22;16.08;;;4.40;99.90;;;;;;4160674;28;20029;-80
2021/04/24 06:24:40;;;;;;;32.33;14.98;;;4.50;99.90;;;;;;4160214;28;20116;-80
2021/04/24 06:26:41;;;;;;;32.63;15.60;;;4.60;99.90;;;;;;4159786;28;20030;-81
2021/04/24 06:28:41;;;;;;;30.98;14.43;;;4.70;99.90;;;;;;4144851;28;20030;-80
2021/04/24 06:30:42;;;;;;;34.10;15.70;;;4.90;99.90;;;;;;4162749;28;20090;-81
2021/04/24 06:32:45;;;;;;;30.25;14.75;;;5.00;99.90;;;;;;4145057;28;20045;-81
2021/04/24 06:34:46;;;;;;;24.67;13.73;;;5.20;99.90;;;;;;4145431;28;20036;-80
2021/04/24 06:36:47;;;;;;;32.67;16.42;;;5.30;99.90;;;;;;4161327;28;20120;-81
2021/04/24 06:38:47;;;;;;;28.58;14.07;;;5.40;99.90;;;;;;4161223;28;20068;-81
2021/04/24 06:40:48;;;;;;;23.65;14.70;;;5.50;99.90;;;;;;4145096;28;20026;-81
2021/04/24 06:42:50;;;;;;;24.75;12.93;;;5.70;99.90;;;;;;4145164;28;20030;-82
2021/04/24 06:44:51;;;;;;;30.75;14.05;;;5.80;99.90;;;;;;4129585;28;20054;-80
2021/04/24 06:46:52;;;;;;;26.60;13.30;;;5.90;99.90;;;;;;4160829;28;20091;-83
2021/04/24 06:48:53;;;;;;;24.58;12.90;;;6.10;99.90;;;;;;4152783;28;20033;-83
2021/04/24 06:50:56;;;;;;;25.58;11.75;;;6.20;99.90;;;;;;4143487;28;20603;-83
2021/04/24 06:52:57;;;;;;;23.48;12.05;;;6.30;99.90;;;;;;4143664;28;20117;-81
2021/04/24 06:54:59;;;;;;;26.42;12.80;;;6.50;99.90;;;;;;4150301;28;20107;-81
2021/04/24 06:57:00;;;;;;;24.08;12.05;;;6.60;99.90;;;;;;4163659;28;20033;-81
2021/04/24 06:59:02;;;;;;;19.48;10.70;;;6.70;99.90;;;;;;4154159;28;20602;-81
2021/04/24 07:01:03;;;;;;;19.88;11.35;;;6.70;99.90;;;;;;4138624;28;20030;-80
2021/04/24 07:03:04;;;;;;;18.98;11.23;;;6.80;99.90;;;;;;4147909;28;20061;-82
2021/04/24 07:05:08;;;;;;;23.30;11.52;;;6.80;99.90;;;;;;4161641;28;20022;-81
2021/04/24 07:07:09;;;;;;;25.20;12.70;;;6.90;99.90;;;;;;4162051;28;20026;-81
2021/04/24 07:09:10;;;;;;;15.50;10.30;;;7.10;99.90;;;;;;4142682;28;20026;-81
2021/04/24 07:11:10;;;;;;;19.77;11.32;;;7.20;99.90;;;;;;4156145;28;20057;-81
2021/04/24 07:13:11;;;;;;;25.30;10.38;;;7.40;99.90;;;;;;4144956;28;20038;-82
2021/04/24 07:15:13;;;;;;;18.60;10.30;;;7.60;99.90;;;;;;4162817;28;20049;-81
2021/04/24 07:17:14;;;;;;;17.88;8.85;;;7.70;99.90;;;;;;4146533;28;20029;-82
2021/04/24 07:19:17;;;;;;;13.73;9.50;;;7.90;99.90;;;;;;4136417;28;20225;-82
2021/04/24 07:21:18;;;;;;;16.98;9.13;;;8.00;99.90;;;;;;4130645;28;20065;-81
2021/04/24 07:23:19;;;;;;;15.43;8.82;;;8.00;99.90;;;;;;4129247;28;20046;-81
2021/04/24 07:25:20;;;;;;;14.93;8.57;;;8.00;99.90;;;;;;4146754;28;20050;-81
2021/04/24 07:27:20;;;;;;;13.88;9.32;;;8.00;99.90;;;;;;4152516;28;20038;-82
2021/04/24 07:29:21;;;;;;;17.63;9.18;;;8.10;99.90;;;;;;4143699;28;20504;-80
2021/04/24 07:31:22;;;;;;;11.27;7.93;;;8.10;99.90;;;;;;4159216;28;20034;-80
2021/04/24 07:33:23;;;;;;;13.60;7.57;;;8.20;99.90;;;;;;4145387;28;20433;-80
2021/04/24 07:35:24;;;;;;;10.13;6.55;;;8.30;99.90;;;;;;4146015;28;20067;-81
2021/04/24 07:37:25;;;;;;;12.93;6.80;;;8.30;99.90;;;;;;4163290;28;20038;-81
2021/04/24 07:39:26;;;;;;;7.85;6.43;;;8.40;99.90;;;;;;4146091;28;20111;-81
2021/04/24 07:41:27;;;;;;;12.45;6.35;;;8.40;99.90;;;;;;4120737;28;20403;-80
2021/04/24 07:43:28;;;;;;;9.45;6.68;;;8.50;99.90;;;;;;4145682;28;20038;-79
2021/04/24 07:45:29;;;;;;;10.32;5.95;;;8.50;99.90;;;;;;4162413;28;20041;-80
2021/04/24 07:47:30;;;;;;;14.45;6.57;;;8.60;99.90;;;;;;4161889;28;20037;-80
2021/04/24 07:49:30;;;;;;;12.18;6.50;;;8.70;99.90;;;;;;4147908;28;20045;-80
2021/04/24 07:51:31;;;;;;;14.63;7.13;;;8.80;99.90;;;;;;4154463;28;20033;-79
2021/04/24 07:53:33;;;;;;;14.63;6.38;;;8.80;99.90;;;;;;4155847;28;20090;-79
2021/04/24 07:55:34;;;;;;;8.23;7.00;;;9.00;99.90;;;;;;4145841;28;20034;-80
2021/04/24 07:57:34;;;;;;;8.98;6.05;;;9.20;99.90;;;;;;4158711;28;20033;-80
2021/04/24 07:59:35;;;;;;;11.20;6.40;;;9.40;99.90;;;;;;4150867;28;20057;-81
2021/04/24 08:01:40;;;;;;;9.13;5.13;;;9.40;99.90;;;;;;4162868;28;20064;-78
2021/04/24 08:03:41;;;;;;;6.25;5.22;;;9.50;99.90;;;;;;4162076;28;20049;-79
2021/04/24 08:05:42;;;;;;;7.53;5.05;;;9.50;99.90;;;;;;4153747;28;20041;-79
2021/04/24 08:07:45;;;;;;;7.57;5.60;;;9.50;99.90;;;;;;4146332;28;20038;-79
2021/04/24 08:09:47;;;;;;;7.97;5.53;;;9.70;99.90;;;;;;4161522;28;20401;-80
2021/04/24 08:11:49;;;;;;;7.53;5.50;;;9.80;99.90;;;;;;4147717;28;20046;-81
2021/04/24 08:13:50;;;;;;;9.02;5.47;;;10.00;99.90;;;;;;4147081;28;20334;-80
2021/04/24 08:15:52;;;;;;;7.40;5.30;;;10.20;99.90;;;;;;4150629;28;20030;-81
2021/04/24 08:17:53;;;;;;;9.38;5.60;;;10.30;99.90;;;;;;4151453;28;20029;-78
2021/04/24 08:19:54;;;;;;;7.95;4.97;;;10.30;99.90;;;;;;4149769;28;20632;-79
2021/04/24 08:21:56;;;;;;;7.70;5.72;;;10.30;99.90;;;;;;4178053;28;20049;-80
2021/04/24 08:24:00;;;;;;;14.63;6.60;;;10.20;99.90;;;;;;4150515;28;20033;-79
2021/04/24 08:26:01;;;;;;;8.32;6.20;;;10.20;99.90;;;;;;4159417;28;20095;-80
2021/04/24 08:28:02;;;;;;;9.93;5.57;;;10.30;99.90;;;;;;4153811;28;20022;-80
2021/04/24 08:30:06;;;;;;;7.90;6.00;;;10.50;99.90;;;;;;4150633;28;20042;-80
2021/04/24 08:32:09;;;;;;;8.95;5.40;;;10.60;99.90;;;;;;4157311;28;20021;-80
2021/04/24 08:34:11;;;;;;;9.43;6.28;;;10.80;99.90;;;;;;4133374;28;20046;-82
2021/04/24 08:36:12;;;;;;;10.57;5.50;;;10.90;99.90;;;;;;4149695;28;20088;-82
2021/04/24 08:38:13;;;;;;;8.30;6.05;;;10.90;99.90;;;;;;4152108;28;20065;-77
2021/04/24 08:40:17;;;;;;;11.70;5.63;;;11.10;99.90;;;;;;4162756;28;20036;-75
2021/04/24 08:42:18;;;;;;;15.73;5.93;;;11.10;99.90;;;;;;4160072;28;20033;-77
2021/04/24 08:44:19;;;;;;;8.98;4.65;;;11.10;99.90;;;;;;4160321;28;20033;-77
2021/04/24 08:46:20;;;;;;;12.75;4.55;;;11.10;99.90;;;;;;4153906;28;20604;-76
2021/04/24 08:48:22;;;;;;;6.25;4.35;;;11.20;99.90;;;;;;4155164;28;20041;-75
2021/04/24 08:50:27;;;;;;;5.28;4.65;;;11.20;99.90;;;;;;4144349;28;20117;-75
2021/04/24 08:52:28;;;;;;;12.02;5.30;;;11.30;99.90;;;;;;4160722;28;20441;-77
2021/04/24 08:54:30;;;;;;;5.90;4.15;;;11.50;99.90;;;;;;4151850;28;20057;-77
2021/04/24 08:56:31;;;;;;;9.27;6.82;;;11.60;99.90;;;;;;4141707;28;20129;-77
2021/04/24 08:58:32;;;;;;;9.07;4.10;;;11.70;99.90;;;;;;4145203;28;20037;-78
2021/04/24 09:00:39;;;;;;;8.23;5.25;;;11.90;99.90;;;;;;4151484;28;20117;-81
2021/04/24 09:02:42;;;;;;;6.20;4.85;;;12.00;99.90;;;;;;4138540;28;20085;-77
2021/04/24 09:04:43;;;;;;;8.70;5.22;;;12.10;99.90;;;;;;4144664;28;20057;-78
2021/04/24 09:06:44;;;;;;;17.65;6.53;;;12.20;99.90;;;;;;4161385;28;20026;-80
2021/04/24 09:08:59;;;;;;;10.60;6.47;;;12.30;99.90;;;;;;4162050;28;20037;-80
2021/04/24 09:11:05;;;;;;;10.10;5.68;;;12.50;99.90;;;;;;4145807;28;20038;-79
2021/04/24 09:13:07;;;;;;;8.35;5.82;;;12.70;99.90;;;;;;4145852;28;20089;-79
2021/04/24 09:15:12;;;;;;;6.97;5.18;;;12.80;99.90;;;;;;4146247;28;20400;-80
2021/04/24 09:17:12;;;;;;;10.80;5.75;;;12.90;99.90;;;;;;4146778;28;20041;-80
2021/04/24 09:19:30;;;;;;;8.90;6.30;;;12.70;99.90;;;;;;4143834;28;20076;-79
2021/04/24 09:21:31;;;;;;;9.05;5.88;;;12.70;99.90;;;;;;4159399;28;20063;-78
2021/04/24 09:23:35;;;;;;;9.55;6.00;;;12.60;99.90;;;;;;4145510;28;20397;-79
2021/04/24 09:25:56;;;;;;;9.07;6.32;;;12.60;99.90;;;;;;4137234;28;20540;-78
2021/04/24 09:27:56;;;;;;;6.57;5.88;;;12.80;99.90;;;;;;4149432;28;20034;-79
2021/04/24 09:30:19;;;;;;;8.70;5.68;;;12.80;99.90;;;;;;4156403;28;20048;-81
2021/04/24 09:32:21;;;;;;;8.38;6.20;;;12.90;99.90;;;;;;4133972;28;20536;-77
2021/04/24 09:34:22;;;;;;;12.02;6.18;;;13.00;99.90;;;;;;4127174;28;20482;-78
2021/04/24 09:36:24;;;;;;;9.77;5.45;;;13.10;99.90;;;;;;4148200;28;20030;-79
2021/04/24 09:38:36;;;;;;;8.33;5.40;;;13.40;99.90;;;;;;4152262;28;20116;-79
2021/04/24 09:40:37;;;;;;;6.45;4.97;;;13.60;99.90;;;;;;4177111;28;20044;-78
2021/04/24 09:42:40;;;;;;;10.80;5.18;;;13.70;99.90;;;;;;4148031;28;20611;-78
2021/04/24 09:44:41;;;;;;;7.55;4.90;;;14.00;99.90;;;;;;4148158;28;20125;-79
2021/04/24 09:46:48;;;;;;;5.93;5.20;;;14.10;99.90;;;;;;4155534;28;20451;-79
2021/04/24 09:48:49;;;;;;;8.18;4.68;;;14.20;99.90;;;;;;4152742;28;20053;-80
2021/04/24 09:50:50;;;;;;;7.13;5.20;;;14.10;99.90;;;;;;4156066;28;20038;-80
2021/04/24 09:52:51;;;;;;;6.55;4.30;;;14.30;99.90;;;;;;4158986;28;20026;-77
2021/04/24 09:54:51;;;;;;;5.40;4.88;;;14.80;99.90;;;;;;4153816;28;20081;-80
2021/04/24 09:56:59;;;;;;;10.23;5.10;;;14.70;99.90;;;;;;4157446;28;20021;-79
2021/04/24 09:59:09;;;;;;;5.22;4.32;;;14.70;99.90;;;;;;4153937;28;20029;-80
2021/04/24 10:01:25;;;;;;;7.15;4.25;;;14.80;99.90;;;;;;4140637;28;20201;-80
2021/04/24 10:03:40;;;;;;;7.15;3.83;;;15.20;99.90;;;;;;4154093;28;20041;-78
2021/04/24 10:05:41;;;;;;;6.63;4.35;;;15.50;99.90;;;;;;4141449;28;20456;-79
2021/04/24 10:07:47;;;;;;;6.95;4.30;;;15.70;94.00;;;;;;4134709;28;20111;-79
2021/04/24 10:09:48;;;;;;;8.02;4.53;;;15.50;94.00;;;;;;4156304;28;20029;-80
2021/04/24 10:12:01;;;;;;;5.78;4.00;;;15.70;96.60;;;;;;4159651;28;20091;-81
2021/04/24 10:14:02;;;;;;;7.35;4.35;;;16.00;92.70;;;;;;4153304;28;20043;-80
2021/04/24 10:16:03;;;;;;;8.57;4.45;;;16.20;90.40;;;;;;4136125;28;20034;-80
2021/04/24 10:18:07;;;;;;;5.85;4.40;;;16.40;86.50;;;;;;4137867;28;20507;-81
2021/04/24 10:20:08;;;;;;;6.93;4.55;;;16.60;83.20;;;;;;4160932;28;20164;-82
2021/04/24 10:22:22;;;;;;;10.30;5.30;;;16.70;84.70;;;;;;4161734;28;20030;-82
2021/04/24 10:24:26;;;;;;;8.93;4.25;;;16.90;79.80;;;;;;4148902;28;20033;-82
2021/04/24 10:26:28;;;;;;;6.18;4.03;;;16.60;78.50;;;;;;4144293;28;20030;-84
2021/04/24 10:28:29;;;;;;;5.57;4.50;;;16.20;79.30;;;;;;4141815;28;20104;-84
2021/04/24 10:30:30;;;;;;;8.07;4.95;;;16.00;78.40;;;;;;4141084;28;20034;-78